sensor_id;sensor_type;location;lat;lon;timestamp;P1;P2;P0
34240;PMS7003;20503;50.200;19.508;2023-01-20T00:00:46;6;3;2
34240;PMS7003;20503;50.200;19.508;2023-01-20T00:05:56;7;2;1
34240;PMS7003;20503;50.200;19.508;2023-01-20T00:11:08;5;5;3
34240;PMS7003;20503;50.200;19.508;2023-01-20T00:16:18;6;2;1
34240;PMS7003;20503;50.200;19.508;2023-01-20T00:21:29;8;1;0
34240;PMS7003;20503;50.200;19.508;2023-01-20T00:26:40;6;3;2
34240;PMS7003;20503;50.200;19.508;2023-01-20T00:31:50;9;5;3
34240;PMS7003;20503;50.200;19.508;2023-01-20T00:37:01;7;4;3
34240;PMS7003;20503;50.200;19.508;2023-01-20T00:42:13;5;3;1
34240;PMS7003;20503;50.200;19.508;2023-01-20T00:47:23;5;4;1
34240;PMS7003;20503;50.200;19.508;2023-01-20T00:52:33;2;1;0
34240;PMS7003;20503;50.200;19.508;2023-01-20T00:57:44;3;2;1
34240;PMS7003;20503;50.200;19.508;2023-01-20T01:02:55;3;3;1
34240;PMS7003;20503;50.200;19.508;2023-01-20T01:08:07;1;0;0
34240;PMS7003;20503;50.200;19.508;2023-01-20T01:13:17;8;4;2
34240;PMS7003;20503;50.200;19.508;2023-01-20T01:18:27;8;4;2
34240;PMS7003;20503;50.200;19.508;2023-01-20T01:23:38;5;2;2
34240;PMS7003;20503;50.200;19.508;2023-01-20T01:28:49;4;2;1
34240;PMS7003;20503;50.200;19.508;2023-01-20T01:34:00;4;2;2
34240;PMS7003;20503;50.200;19.508;2023-01-20T01:39:11;9;3;1
34240;PMS7003;20503;50.200;19.508;2023-01-20T01:44:23;9;3;1
34240;PMS7003;20503;50.200;19.508;2023-01-20T01:49:32;4;1;1
34240;PMS7003;20503;50.200;19.508;2023-01-20T01:54:43;4;3;2
34240;PMS7003;20503;50.200;19.508;2023-01-20T01:59:54;6;3;2
34240;PMS7003;20503;50.200;19.508;2023-01-20T02:05:05;7;3;2
34240;PMS7003;20503;50.200;19.508;2023-01-20T02:10:16;4;1;0
34240;PMS7003;20503;50.200;19.508;2023-01-20T02:15:27;7;2;1
34240;PMS7003;20503;50.200;19.508;2023-01-20T02:25:59;4;3;1
34240;PMS7003;20503;50.200;19.508;2023-01-20T02:31:13;4;2;1
34240;PMS7003;20503;50.200;19.508;2023-01-20T02:46:45;5;2;1
34240;PMS7003;20503;50.200;19.508;2023-01-20T02:51:55;4;2;1
34240;PMS7003;20503;50.200;19.508;2023-01-20T02:57:02;6;4;1
34240;PMS7003;20503;50.200;19.508;2023-01-20T03:02:09;3;2;1
34240;PMS7003;20503;50.200;19.508;2023-01-20T03:07:16;6;2;1
34240;PMS7003;20503;50.200;19.508;2023-01-20T03:12:29;1;1;1
34240;PMS7003;20503;50.200;19.508;2023-01-20T03:17:37;6;2;1
34240;PMS7003;20503;50.200;19.508;2023-01-20T03:22:46;2;1;0
34240;PMS7003;20503;50.200;19.508;2023-01-20T03:27:57;2;2;1
34240;PMS7003;20503;50.200;19.508;2023-01-20T03:33:08;2;2;1
34240;PMS7003;20503;50.200;19.508;2023-01-20T03:38:20;6;3;1
34240;PMS7003;20503;50.200;19.508;2023-01-20T03:48:59;4;2;0
34240;PMS7003;20503;50.200;19.508;2023-01-20T03:54:02;6;4;3
34240;PMS7003;20503;50.200;19.508;2023-01-20T03:59:10;4;2;2
34240;PMS7003;20503;50.200;19.508;2023-01-20T04:04:16;7;4;3
34240;PMS7003;20503;50.200;19.508;2023-01-20T04:09:24;10;6;4
34240;PMS7003;20503;50.200;19.508;2023-01-20T04:14:34;8;3;2
34240;PMS7003;20503;50.200;19.508;2023-01-20T04:19:45;6;4;2
34240;PMS7003;20503;50.200;19.508;2023-01-20T04:30:11;4;2;0
34240;PMS7003;20503;50.200;19.508;2023-01-20T04:35:18;3;1;0
34240;PMS7003;20503;50.200;19.508;2023-01-20T04:40:29;7;5;2
34240;PMS7003;20503;50.200;19.508;2023-01-20T04:45:39;10;7;4
34240;PMS7003;20503;50.200;19.508;2023-01-20T04:50:49;14;7;3
34240;PMS7003;20503;50.200;19.508;2023-01-20T04:56:00;19;9;5
34240;PMS7003;20503;50.200;19.508;2023-01-20T05:01:12;8;5;3
34240;PMS7003;20503;50.200;19.508;2023-01-20T05:06:23;10;6;4
34240;PMS7003;20503;50.200;19.508;2023-01-20T05:11:33;9;5;3
34240;PMS7003;20503;50.200;19.508;2023-01-20T05:16:43;5;2;1
34240;PMS7003;20503;50.200;19.508;2023-01-20T05:21:54;6;5;2
34240;PMS7003;20503;50.200;19.508;2023-01-20T05:27:05;10;5;3
34240;PMS7003;20503;50.200;19.508;2023-01-20T05:32:16;6;4;0
34240;PMS7003;20503;50.200;19.508;2023-01-20T05:37:27;14;5;1
34240;PMS7003;20503;50.200;19.508;2023-01-20T05:42:37;11;7;4
34240;PMS7003;20503;50.200;19.508;2023-01-20T05:47:52;4;3;2
34240;PMS7003;20503;50.200;19.508;2023-01-20T05:52:59;5;3;2
34240;PMS7003;20503;50.200;19.508;2023-01-20T05:58:10;8;6;3
34240;PMS7003;20503;50.200;19.508;2023-01-20T06:03:20;13;7;4
34240;PMS7003;20503;50.200;19.508;2023-01-20T06:08:31;4;1;1
34240;PMS7003;20503;50.200;19.508;2023-01-20T06:13:42;10;4;2
34240;PMS7003;20503;50.200;19.508;2023-01-20T06:18:53;9;5;4
34240;PMS7003;20503;50.200;19.508;2023-01-20T06:24:04;14;7;5
34240;PMS7003;20503;50.200;19.508;2023-01-20T06:29:14;19;11;5
34240;PMS7003;20503;50.200;19.508;2023-01-20T06:34:25;9;7;4
34240;PMS7003;20503;50.200;19.508;2023-01-20T06:39:36;7;5;4
34240;PMS7003;20503;50.200;19.508;2023-01-20T06:44:48;13;8;5
34240;PMS7003;20503;50.200;19.508;2023-01-20T06:49:58;13;10;6
34240;PMS7003;20503;50.200;19.508;2023-01-20T06:55:08;8;5;3
34240;PMS7003;20503;50.200;19.508;2023-01-20T07:00:19;9;6;4
34240;PMS7003;20503;50.200;19.508;2023-01-20T07:05:30;4;2;0
34240;PMS7003;20503;50.200;19.508;2023-01-20T07:10:41;5;3;2
34240;PMS7003;20503;50.200;19.508;2023-01-20T07:15:51;6;5;4
34240;PMS7003;20503;50.200;19.508;2023-01-20T07:21:02;9;3;1
34240;PMS7003;20503;50.200;19.508;2023-01-20T07:26:14;6;5;3
34240;PMS7003;20503;50.200;19.508;2023-01-20T07:31:25;4;3;1
34240;PMS7003;20503;50.200;19.508;2023-01-20T07:36:35;14;6;4
34240;PMS7003;20503;50.200;19.508;2023-01-20T07:41:46;7;6;3
34240;PMS7003;20503;50.200;19.508;2023-01-20T07:46:56;10;6;4
34240;PMS7003;20503;50.200;19.508;2023-01-20T07:52:07;7;5;3
34240;PMS7003;20503;50.200;19.508;2023-01-20T07:57:20;5;4;2
34240;PMS7003;20503;50.200;19.508;2023-01-20T08:02:28;5;3;1
34240;PMS7003;20503;50.200;19.508;2023-01-20T08:07:39;7;6;3
34240;PMS7003;20503;50.200;19.508;2023-01-20T08:12:50;8;4;3
34240;PMS7003;20503;50.200;19.508;2023-01-20T08:18:01;7;3;2
34240;PMS7003;20503;50.200;19.508;2023-01-20T08:23:12;14;10;7
34240;PMS7003;20503;50.200;19.508;2023-01-20T08:28:28;7;6;4
34240;PMS7003;20503;50.200;19.508;2023-01-20T08:33:37;10;7;4
34240;PMS7003;20503;50.200;19.508;2023-01-20T08:38:48;7;6;3
34240;PMS7003;20503;50.200;19.508;2023-01-20T08:44:00;24;17;8
34240;PMS7003;20503;50.200;19.508;2023-01-20T08:49:14;27;18;9
34240;PMS7003;20503;50.200;19.508;2023-01-20T08:54:21;18;8;4
34240;PMS7003;20503;50.200;19.508;2023-01-20T08:59:31;18;9;6
34240;PMS7003;20503;50.200;19.508;2023-01-20T09:04:42;19;9;6
34240;PMS7003;20503;50.200;19.508;2023-01-20T09:09:53;7;6;4
34240;PMS7003;20503;50.200;19.508;2023-01-20T09:15:04;11;8;5
34240;PMS7003;20503;50.200;19.508;2023-01-20T09:25:34;7;6;4
34240;PMS7003;20503;50.200;19.508;2023-01-20T09:30:36;9;4;3
34240;PMS7003;20503;50.200;19.508;2023-01-20T09:35:52;7;5;4
34240;PMS7003;20503;50.200;19.508;2023-01-20T09:51:39;7;6;3
34240;PMS7003;20503;50.200;19.508;2023-01-20T10:02:24;10;7;4
34240;PMS7003;20503;50.200;19.508;2023-01-20T10:07:39;14;11;6
34240;PMS7003;20503;50.200;19.508;2023-01-20T10:12:55;8;6;3
34240;PMS7003;20503;50.200;19.508;2023-01-20T10:18:03;5;5;3
34240;PMS7003;20503;50.200;19.508;2023-01-20T10:23:10;13;4;2
34240;PMS7003;20503;50.200;19.508;2023-01-20T10:28:22;5;3;2
34240;PMS7003;20503;50.200;19.508;2023-01-20T10:33:32;11;4;3
34240;PMS7003;20503;50.200;19.508;2023-01-20T10:43:54;5;5;3
34240;PMS7003;20503;50.200;19.508;2023-01-20T10:49:05;6;3;1
34240;PMS7003;20503;50.200;19.508;2023-01-20T10:59:28;5;4;2
34240;PMS7003;20503;50.200;19.508;2023-01-20T11:04:34;8;5;3
34240;PMS7003;20503;50.200;19.508;2023-01-20T11:09:36;6;5;3
34240;PMS7003;20503;50.200;19.508;2023-01-20T11:14:37;15;6;2
34240;PMS7003;20503;50.200;19.508;2023-01-20T11:24:52;3;1;0
34240;PMS7003;20503;50.200;19.508;2023-01-20T11:29:58;6;3;2
34240;PMS7003;20503;50.200;19.508;2023-01-20T11:40:23;10;8;6
34240;PMS7003;20503;50.200;19.508;2023-01-20T11:45:27;13;5;4
34240;PMS7003;20503;50.200;19.508;2023-01-20T11:50:44;7;5;3
34240;PMS7003;20503;50.200;19.508;2023-01-20T12:06:25;8;5;3
34240;PMS7003;20503;50.200;19.508;2023-01-20T12:11:30;6;5;3
34240;PMS7003;20503;50.200;19.508;2023-01-20T12:16:34;8;3;2
34240;PMS7003;20503;50.200;19.508;2023-01-20T12:21:40;12;4;2
34240;PMS7003;20503;50.200;19.508;2023-01-20T12:26:45;6;5;3
34240;PMS7003;20503;50.200;19.508;2023-01-20T12:31:53;7;6;3
34240;PMS7003;20503;50.200;19.508;2023-01-20T12:48:19;11;5;3
34240;PMS7003;20503;50.200;19.508;2023-01-20T12:52:50;12;6;4
34240;PMS7003;20503;50.200;19.508;2023-01-20T13:18:57;6;4;3
34240;PMS7003;20503;50.200;19.508;2023-01-20T13:24:08;8;5;3
34240;PMS7003;20503;50.200;19.508;2023-01-20T13:29:39;12;6;3
34240;PMS7003;20503;50.200;19.508;2023-01-20T13:34:32;8;3;0
34240;PMS7003;20503;50.200;19.508;2023-01-20T13:39:39;6;5;3
34240;PMS7003;20503;50.200;19.508;2023-01-20T13:44:42;8;4;2
34240;PMS7003;20503;50.200;19.508;2023-01-20T13:49:45;11;5;3
34240;PMS7003;20503;50.200;19.508;2023-01-20T13:54:51;2;2;1
34240;PMS7003;20503;50.200;19.508;2023-01-20T13:59:57;8;5;4
34240;PMS7003;20503;50.200;19.508;2023-01-20T14:10:21;10;5;3
34240;PMS7003;20503;50.200;19.508;2023-01-20T14:15:30;16;4;3
34240;PMS7003;20503;50.200;19.508;2023-01-20T14:20:40;4;4;3
34240;PMS7003;20503;50.200;19.508;2023-01-20T14:31:10;10;8;4
34240;PMS7003;20503;50.200;19.508;2023-01-20T14:36:16;16;12;7
34240;PMS7003;20503;50.200;19.508;2023-01-20T14:41:22;12;6;4
34240;PMS7003;20503;50.200;19.508;2023-01-20T14:46:33;9;5;3
34240;PMS7003;20503;50.200;19.508;2023-01-20T14:51:44;9;5;2
34240;PMS7003;20503;50.200;19.508;2023-01-20T14:56:55;9;4;2
34240;PMS7003;20503;50.200;19.508;2023-01-20T15:02:05;7;5;4
34240;PMS7003;20503;50.200;19.508;2023-01-20T15:07:18;9;3;1
34240;PMS7003;20503;50.200;19.508;2023-01-20T15:12:30;11;7;4
34240;PMS7003;20503;50.200;19.508;2023-01-20T15:22:55;10;3;2
34240;PMS7003;20503;50.200;19.508;2023-01-20T15:27:59;8;7;4
34240;PMS7003;20503;50.200;19.508;2023-01-20T15:33:10;14;8;4
34240;PMS7003;20503;50.200;19.508;2023-01-20T15:38:21;8;6;4
34240;PMS7003;20503;50.200;19.508;2023-01-20T15:43:32;14;8;3
34240;PMS7003;20503;50.200;19.508;2023-01-20T15:48:43;9;5;2
34240;PMS7003;20503;50.200;19.508;2023-01-20T15:53:53;5;5;4
34240;PMS7003;20503;50.200;19.508;2023-01-20T16:04:21;10;4;3
34240;PMS7003;20503;50.200;19.508;2023-01-20T16:09:25;9;5;4
34240;PMS7003;20503;50.200;19.508;2023-01-20T16:14:37;11;7;4
34240;PMS7003;20503;50.200;19.508;2023-01-20T16:19:47;6;3;2
34240;PMS7003;20503;50.200;19.508;2023-01-20T16:24:57;10;7;4
34240;PMS7003;20503;50.200;19.508;2023-01-20T16:30:13;10;6;4
34240;PMS7003;20503;50.200;19.508;2023-01-20T16:35:19;8;3;2
34240;PMS7003;20503;50.200;19.508;2023-01-20T16:40:30;12;4;2
34240;PMS7003;20503;50.200;19.508;2023-01-20T16:45:41;10;5;2
34240;PMS7003;20503;50.200;19.508;2023-01-20T16:50:52;6;4;2
34240;PMS7003;20503;50.200;19.508;2023-01-20T16:56:03;7;3;2
34240;PMS7003;20503;50.200;19.508;2023-01-20T17:01:13;15;6;3
34240;PMS7003;20503;50.200;19.508;2023-01-20T17:06:25;6;4;3
34240;PMS7003;20503;50.200;19.508;2023-01-20T17:11:35;9;6;3
34240;PMS7003;20503;50.200;19.508;2023-01-20T17:16:45;5;4;3
34240;PMS7003;20503;50.200;19.508;2023-01-20T17:21:56;4;4;2
34240;PMS7003;20503;50.200;19.508;2023-01-20T17:27:07;4;3;2
34240;PMS7003;20503;50.200;19.508;2023-01-20T17:32:18;10;4;2
34240;PMS7003;20503;50.200;19.508;2023-01-20T17:37:29;13;4;2
34240;PMS7003;20503;50.200;19.508;2023-01-20T17:42:39;13;6;3
34240;PMS7003;20503;50.200;19.508;2023-01-20T17:47:50;6;2;1
34240;PMS7003;20503;50.200;19.508;2023-01-20T17:53:01;4;3;2
34240;PMS7003;20503;50.200;19.508;2023-01-20T17:58:12;3;3;2
34240;PMS7003;20503;50.200;19.508;2023-01-20T18:03:22;6;3;2
34240;PMS7003;20503;50.200;19.508;2023-01-20T18:08:33;17;10;6
34240;PMS7003;20503;50.200;19.508;2023-01-20T18:13:44;9;5;4
34240;PMS7003;20503;50.200;19.508;2023-01-20T18:18:55;11;5;4
34240;PMS7003;20503;50.200;19.508;2023-01-20T18:24:06;7;5;3
34240;PMS7003;20503;50.200;19.508;2023-01-20T18:29:16;4;3;2
34240;PMS7003;20503;50.200;19.508;2023-01-20T18:34:27;7;4;3
34240;PMS7003;20503;50.200;19.508;2023-01-20T18:39:38;7;3;2
34240;PMS7003;20503;50.200;19.508;2023-01-20T18:44:49;6;3;2
34240;PMS7003;20503;50.200;19.508;2023-01-20T18:49:59;4;2;1
34240;PMS7003;20503;50.200;19.508;2023-01-20T18:55:10;8;2;2
34240;PMS7003;20503;50.200;19.508;2023-01-20T19:00:21;5;2;1
34240;PMS7003;20503;50.200;19.508;2023-01-20T19:05:32;4;3;2
34240;PMS7003;20503;50.200;19.508;2023-01-20T19:10:42;5;4;2
34240;PMS7003;20503;50.200;19.508;2023-01-20T19:15:53;4;3;1
34240;PMS7003;20503;50.200;19.508;2023-01-20T19:21:05;3;3;2
34240;PMS7003;20503;50.200;19.508;2023-01-20T19:26:15;3;3;2
34240;PMS7003;20503;50.200;19.508;2023-01-20T19:31:26;1;1;0
34240;PMS7003;20503;50.200;19.508;2023-01-20T19:36:37;3;2;1
34240;PMS7003;20503;50.200;19.508;2023-01-20T19:41:47;5;2;1
34240;PMS7003;20503;50.200;19.508;2023-01-20T19:46:58;2;2;1
34240;PMS7003;20503;50.200;19.508;2023-01-20T19:52:09;7;4;2
34240;PMS7003;20503;50.200;19.508;2023-01-20T19:57:20;4;2;1
34240;PMS7003;20503;50.200;19.508;2023-01-20T20:02:30;3;2;2
34240;PMS7003;20503;50.200;19.508;2023-01-20T20:07:41;4;2;1
34240;PMS7003;20503;50.200;19.508;2023-01-20T20:12:52;2;2;1
34240;PMS7003;20503;50.200;19.508;2023-01-20T20:18:03;2;1;0
34240;PMS7003;20503;50.200;19.508;2023-01-20T20:23:14;7;3;1
34240;PMS7003;20503;50.200;19.508;2023-01-20T20:28:25;6;2;1
34240;PMS7003;20503;50.200;19.508;2023-01-20T20:33:35;5;2;2
34240;PMS7003;20503;50.200;19.508;2023-01-20T20:38:46;4;2;1
34240;PMS7003;20503;50.200;19.508;2023-01-20T20:43:57;2;2;1
34240;PMS7003;20503;50.200;19.508;2023-01-20T20:49:09;7;3;1
34240;PMS7003;20503;50.200;19.508;2023-01-20T20:54:18;9;2;1
34240;PMS7003;20503;50.200;19.508;2023-01-20T20:59:29;7;3;2
34240;PMS7003;20503;50.200;19.508;2023-01-20T21:04:40;3;2;1
34240;PMS7003;20503;50.200;19.508;2023-01-20T21:09:51;0;0;0
34240;PMS7003;20503;50.200;19.508;2023-01-20T21:15:01;3;2;2
34240;PMS7003;20503;50.200;19.508;2023-01-20T21:20:12;1;0;0
34240;PMS7003;20503;50.200;19.508;2023-01-20T21:25:23;7;2;1
34240;PMS7003;20503;50.200;19.508;2023-01-20T21:30:34;1;1;0
34240;PMS7003;20503;50.200;19.508;2023-01-20T21:35:44;1;1;0
34240;PMS7003;20503;50.200;19.508;2023-01-20T21:40:55;7;4;3
34240;PMS7003;20503;50.200;19.508;2023-01-20T21:46:06;3;3;1
34240;PMS7003;20503;50.200;19.508;2023-01-20T21:51:17;6;6;4
34240;PMS7003;20503;50.200;19.508;2023-01-20T21:56:31;3;2;1
34240;PMS7003;20503;50.200;19.508;2023-01-20T22:01:38;3;1;1
34240;PMS7003;20503;50.200;19.508;2023-01-20T22:06:49;2;1;0
34240;PMS7003;20503;50.200;19.508;2023-01-20T22:12:00;3;1;0
34240;PMS7003;20503;50.200;19.508;2023-01-20T22:17:11;6;0;0
34240;PMS7003;20503;50.200;19.508;2023-01-20T22:22:22;1;1;0
34240;PMS7003;20503;50.200;19.508;2023-01-20T22:27:33;2;0;0
34240;PMS7003;20503;50.200;19.508;2023-01-20T22:32:44;2;0;0
34240;PMS7003;20503;50.200;19.508;2023-01-20T22:37:54;2;1;0
34240;PMS7003;20503;50.200;19.508;2023-01-20T22:43:05;2;1;0
34240;PMS7003;20503;50.200;19.508;2023-01-20T22:48:16;0;0;0
34240;PMS7003;20503;50.200;19.508;2023-01-20T22:53:26;1;0;0
34240;PMS7003;20503;50.200;19.508;2023-01-20T22:58:37;2;0;0
34240;PMS7003;20503;50.200;19.508;2023-01-20T23:03:52;5;1;0
34240;PMS7003;20503;50.200;19.508;2023-01-20T23:09:00;2;0;0
34240;PMS7003;20503;50.200;19.508;2023-01-20T23:14:10;0;0;0
34240;PMS7003;20503;50.200;19.508;2023-01-20T23:19:20;1;0;0
34240;PMS7003;20503;50.200;19.508;2023-01-20T23:24:31;0;0;0
34240;PMS7003;20503;50.200;19.508;2023-01-20T23:29:41;0;0;0
34240;PMS7003;20503;50.200;19.508;2023-01-20T23:34:52;0;0;0
34240;PMS7003;20503;50.200;19.508;2023-01-20T23:40:04;1;0;0
34240;PMS7003;20503;50.200;19.508;2023-01-20T23:45:14;0;0;0
34240;PMS7003;20503;50.200;19.508;2023-01-20T23:50:25;0;0;0
34240;PMS7003;20503;50.200;19.508;2023-01-20T23:55:36;0;0;0
